Главная страница
METAR-TAF:

METAR-TAF

Аэропорты :

Антонов

Гостомель, Украина

широта: 50-36-01N, долгота: 030-11-37E, высота над уровнем моря: 157 м

Текущие метеонаблюдения

Эта сводка был подготовлена 22 минут назад, в 02:30 UTC
Ветер 4 Узел от западный-юго-западный
Температура 15°C
Влажность 88%
Давление 1018 hPa
Видимость 10 км и более

METAR: UKKM 210230Z AUTO 24002MPS 9999 // NCD 15/13 Q1018

Время: 05:52 (02:52 UTC)

Прогноз

Эта сводка был подготовлена 3 часа и 49 минут назад, в 23:03 UTC
Прогноз действительный с 21-го 00 UTC до 21-го 24 UTC
Ветер 2 Узел переменных направлений
Видимость 10 км и более
Отдельные облака на высоте 4000 фута
временами
С 21-го 00 UTC до 21-го 05 UTC
Видимость: 3000 м
Отдельные облака на высоте 700 фута
дымка
изменения
С 21-го 05 UTC до 21-го 07 UTC
Ветер 8 Узел от южный с порывами до 17 Узел

TAF: UKKM 202303Z 2100/2124 VRB01MPS 9999 SCT040 TX30/2112Z TN16/2102Z TEMPO 2100/2105 3000 BR SCT007 BECMG 2105/2107 18004G09MPS

Метеонаблюдения и прогнозы для более 4000 аэропортов (сводки METAR и TAF).

Имеющиеся станции представлены на карте желтыми и красными точками.

Чтобы увидеть название станции, наведите на нее мышь.

Затем щелкните, чтобы увидеть метеонаблюдения и метеопрогнозы.

Управление картой: чтобы увеличить масштаб, щелкните зеленые кнопки с черным крестиком; чтобы уменьшить масштаб, щелкните зеленую кнопку с тире; для просмотра соседних карт щелкайте зеленые стрелки.


METAR-TAF: